Time;durP1;ratioP1;P1;durP2;ratioP2;P2;SDS_P1;SDS_P2;PMS_P1;PMS_P2;Temp;Humidity;BMP_temperature;BMP_pressure;BME280_temperature;BME280_humidity;BME280_pressure;Samples;Min_cycle;Max_cycle;Signal;HPM_P1;HPM_P2
2022/04/19 00:00:56;;;;;;;13.18;6.60;;;8.30;99.90;;;;;;5032678;28;20578;-74
2022/04/19 00:03:23;;;;;;;12.98;6.47;;;8.40;99.90;;;;;;5033075;28;20068;-73
2022/04/19 00:05:48;;;;;;;11.23;5.78;;;8.30;99.90;;;;;;5032938;28;20414;-74
2022/04/19 00:08:16;;;;;;;13.48;6.80;;;8.30;99.90;;;;;;5031725;28;20084;-73
2022/04/19 00:10:42;;;;;;;12.10;6.05;;;8.30;99.90;;;;;;5032736;28;20045;-70
2022/04/19 00:13:10;;;;;;;12.75;6.15;;;8.30;99.90;;;;;;5032519;28;20466;-73
2022/04/19 00:15:38;;;;;;;13.07;6.53;;;8.30;99.90;;;;;;5032080;28;20401;-74
2022/04/19 00:18:05;;;;;;;13.27;6.10;;;8.40;99.90;;;;;;5032846;28;20084;-71
2022/04/19 00:20:33;;;;;;;15.75;6.35;;;8.20;99.90;;;;;;5031538;28;20542;-75
2022/04/19 00:23:00;;;;;;;13.07;6.85;;;8.20;99.90;;;;;;5034495;28;20045;-73
2022/04/19 00:25:26;;;;;;;12.20;6.05;;;8.20;99.90;;;;;;5034872;28;20503;-73
2022/04/19 00:27:52;;;;;;;11.88;6.22;;;8.10;99.90;;;;;;5052618;28;20040;-75
2022/04/19 00:30:18;;;;;;;14.48;6.68;;;8.00;99.90;;;;;;5033880;28;20063;-70
2022/04/19 00:32:43;;;;;;;12.18;6.90;;;7.90;99.90;;;;;;5052410;28;20120;-70
2022/04/19 00:35:10;;;;;;;14.48;7.00;;;7.90;99.90;;;;;;5052578;28;20048;-69
2022/04/19 00:37:37;;;;;;;13.68;6.70;;;8.20;99.90;;;;;;5052237;28;20052;-69
2022/04/19 00:40:04;;;;;;;14.38;7.07;;;7.90;99.90;;;;;;5052580;28;20520;-69
2022/04/19 00:42:31;;;;;;;12.75;6.68;;;7.80;99.90;;;;;;5052381;28;20120;-69
2022/04/19 00:45:04;;;;;;;15.18;7.25;;;7.80;99.90;;;;;;5052032;28;20572;-70
2022/04/19 00:47:32;;;;;;;13.07;6.90;;;7.80;99.90;;;;;;5034807;28;20052;-69
2022/04/19 00:50:02;;;;;;;12.98;6.70;;;7.70;99.90;;;;;;5021791;28;20384;-69
2022/04/19 00:52:32;;;;;;;12.25;6.38;;;7.70;99.90;;;;;;5055958;28;20102;-69
2022/04/19 00:54:59;;;;;;;12.52;6.50;;;7.60;99.90;;;;;;5038028;28;20523;-68
2022/04/19 00:57:26;;;;;;;12.95;6.60;;;7.60;99.90;;;;;;5055763;28;20045;-70
2022/04/19 00:59:56;;;;;;;13.48;6.75;;;7.60;99.90;;;;;;5056039;28;20136;-70
2022/04/19 01:02:22;;;;;;;12.40;6.55;;;7.60;99.90;;;;;;5055530;28;20092;-70
2022/04/19 01:04:49;;;;;;;11.90;6.13;;;7.60;99.90;;;;;;5055422;28;20045;-69
2022/04/19 01:07:18;;;;;;;14.82;6.60;;;7.60;99.90;;;;;;5037760;28;20132;-68
2022/04/19 01:09:44;;;;;;;12.35;6.35;;;7.50;99.90;;;;;;5055679;28;20086;-70
2022/04/19 01:14:56;;;;;;;12.80;7.10;;;7.50;99.90;;;;;;5037596;28;20049;-68
2022/04/19 01:17:23;;;;;;;14.85;6.65;;;7.40;99.90;;;;;;5055335;28;20477;-68
2022/04/19 01:19:50;;;;;;;13.95;6.45;;;7.40;99.90;;;;;;5054968;28;20053;-74
2022/04/19 01:22:15;;;;;;;15.13;6.55;;;7.40;99.90;;;;;;5037371;28;20045;-73
2022/04/19 01:24:43;;;;;;;15.30;7.07;;;7.30;99.90;;;;;;5055130;28;20090;-73
2022/04/19 01:27:09;;;;;;;12.02;6.10;;;7.30;99.90;;;;;;5055429;28;20103;-71
2022/04/19 01:29:36;;;;;;;14.15;7.13;;;7.30;99.90;;;;;;5055480;28;20041;-73
2022/04/19 01:32:03;;;;;;;13.85;6.20;;;7.30;99.90;;;;;;5055404;28;20126;-72
2022/04/19 01:34:28;;;;;;;13.23;5.97;;;7.20;99.90;;;;;;5054752;28;20057;-71
2022/04/19 01:36:54;;;;;;;15.05;6.57;;;7.10;99.90;;;;;;5037210;28;20045;-73
2022/04/19 01:42:05;;;;;;;14.07;6.18;;;7.00;99.90;;;;;;5037147;28;20049;-71
2022/04/19 01:44:33;;;;;;;12.27;6.20;;;7.00;99.90;;;;;;5054922;28;20044;-69
2022/04/19 01:47:01;;;;;;;11.13;5.93;;;6.90;99.90;;;;;;5054974;28;20385;-71
2022/04/19 01:49:27;;;;;;;11.90;5.93;;;6.90;99.90;;;;;;5054618;28;20041;-71
2022/04/19 01:51:52;;;;;;;12.13;5.70;;;6.90;99.90;;;;;;5036793;28;20436;-69
2022/04/19 01:54:18;;;;;;;11.93;6.10;;;6.80;99.90;;;;;;5054813;28;20052;-70
2022/04/19 01:56:44;;;;;;;13.90;5.85;;;6.80;99.90;;;;;;5055021;28;20048;-72
2022/04/19 01:59:11;;;;;;;11.45;5.95;;;6.80;99.90;;;;;;5053804;28;20041;-68
2022/04/19 02:01:37;;;;;;;14.32;6.30;;;6.80;99.90;;;;;;5036870;28;20095;-70
2022/04/19 02:04:03;;;;;;;12.48;6.05;;;6.90;99.90;;;;;;5036930;28;20041;-70
2022/04/19 02:06:30;;;;;;;12.90;6.30;;;6.80;99.90;;;;;;5036387;28;20065;-71
2022/04/19 02:08:56;;;;;;;12.18;6.07;;;6.70;99.90;;;;;;5054249;28;20048;-72
2022/04/19 02:11:24;;;;;;;11.60;6.43;;;6.90;99.90;;;;;;5054540;28;20049;-72
2022/04/19 02:13:51;;;;;;;13.90;6.82;;;6.70;99.90;;;;;;5054614;28;20045;-69
2022/04/19 02:16:17;;;;;;;11.70;5.97;;;6.60;99.90;;;;;;5054630;28;20045;-70
2022/04/19 02:18:43;;;;;;;14.57;6.15;;;6.60;99.90;;;;;;5054499;28;20072;-70
2022/04/19 02:21:09;;;;;;;12.55;6.03;;;6.60;99.90;;;;;;5054305;28;20480;-68
2022/04/19 02:23:35;;;;;;;12.02;6.00;;;6.50;99.90;;;;;;5035656;28;20057;-69
2022/04/19 02:26:02;;;;;;;12.05;5.75;;;6.50;99.90;;;;;;5054366;28;20182;-69
2022/04/19 02:28:28;;;;;;;12.95;6.10;;;6.50;99.90;;;;;;5054113;28;20060;-69
2022/04/19 02:30:54;;;;;;;13.55;6.07;;;6.40;99.90;;;;;;5054220;28;20369;-68
2022/04/19 02:33:19;;;;;;;13.60;6.90;;;6.40;99.90;;;;;;5036304;28;20083;-65
2022/04/19 02:35:45;;;;;;;11.88;5.35;;;6.40;99.90;;;;;;5036077;28;20048;-69
2022/04/19 02:38:11;;;;;;;13.65;6.30;;;6.80;99.90;;;;;;5053346;28;20040;-69
2022/04/19 02:40:37;;;;;;;13.32;6.32;;;6.40;99.90;;;;;;5035751;28;20081;-70
2022/04/19 02:43:03;;;;;;;11.85;6.03;;;6.30;99.90;;;;;;5054248;28;20044;-69
2022/04/19 02:45:28;;;;;;;12.98;6.20;;;6.30;99.90;;;;;;5035861;28;20053;-69
2022/04/19 02:48:05;;;;;;;11.88;5.72;;;6.30;99.90;;;;;;5053925;28;20049;-70
2022/04/19 02:50:33;;;;;;;10.93;5.90;;;6.30;99.90;;;;;;5053728;28;20056;-69
2022/04/19 02:52:59;;;;;;;11.80;6.07;;;6.20;99.90;;;;;;5035677;28;20053;-69
2022/04/19 02:55:25;;;;;;;13.40;6.30;;;6.20;99.90;;;;;;5053037;28;20053;-70
2022/04/19 02:57:51;;;;;;;12.23;5.78;;;6.20;99.90;;;;;;5053771;28;20080;-74
2022/04/19 03:00:17;;;;;;;14.95;6.95;;;6.20;99.90;;;;;;5053528;28;20067;-72
2022/04/19 03:02:42;;;;;;;13.00;6.22;;;6.30;99.90;;;;;;5035704;28;20045;-72
2022/04/19 03:05:08;;;;;;;11.95;6.03;;;6.20;99.90;;;;;;5035915;28;20132;-73
2022/04/19 03:07:34;;;;;;;11.93;6.20;;;6.20;99.90;;;;;;5053377;28;20037;-73
2022/04/19 03:09:59;;;;;;;13.77;6.35;;;6.20;99.90;;;;;;5052633;28;20577;-74
2022/04/19 03:12:25;;;;;;;11.48;5.57;;;6.20;99.90;;;;;;5035293;28;20061;-73
2022/04/19 03:14:51;;;;;;;14.95;5.72;;;6.20;99.90;;;;;;5053255;28;20458;-73
2022/04/19 03:17:16;;;;;;;14.07;6.63;;;6.10;99.90;;;;;;5035666;28;20171;-74
2022/04/19 03:19:42;;;;;;;12.93;6.15;;;6.20;99.90;;;;;;5035851;28;20049;-71
2022/04/19 03:22:07;;;;;;;13.88;6.22;;;6.00;99.90;;;;;;5053345;28;20037;-74
2022/04/19 03:27:41;;;;;;;11.68;5.43;;;5.90;99.90;;;;;;5052614;28;20045;-74
2022/04/19 03:30:09;;;;;;;11.63;5.95;;;5.90;99.90;;;;;;5053000;28;20045;-74
2022/04/19 03:32:36;;;;;;;11.18;5.72;;;5.90;99.90;;;;;;5018292;28;20052;-73
2022/04/19 03:35:02;;;;;;;11.63;5.93;;;5.80;99.90;;;;;;5035214;28;20036;-72
2022/04/19 03:37:30;;;;;;;12.20;6.05;;;5.80;99.90;;;;;;5035235;28;20059;-74
2022/04/19 03:39:56;;;;;;;12.18;5.57;;;6.20;99.90;;;;;;5053225;28;20052;-74
2022/04/19 03:42:22;;;;;;;14.02;6.22;;;5.70;99.90;;;;;;5052450;28;20063;-73
2022/04/19 03:44:48;;;;;;;11.27;5.80;;;5.80;99.90;;;;;;5018403;28;20073;-73
2022/04/19 03:47:15;;;;;;;12.32;5.85;;;5.70;99.90;;;;;;5035024;28;20408;-73
2022/04/19 03:49:43;;;;;;;14.55;6.85;;;5.80;99.90;;;;;;5052682;28;20068;-73
2022/04/19 03:52:10;;;;;;;13.63;6.13;;;5.70;99.90;;;;;;5052830;28;20473;-73
2022/04/19 03:54:37;;;;;;;14.07;6.32;;;5.70;99.90;;;;;;5052794;28;20049;-74
2022/04/19 03:57:04;;;;;;;13.00;6.10;;;5.70;99.90;;;;;;5052962;28;20048;-74
2022/04/19 03:59:31;;;;;;;11.95;5.90;;;5.60;99.90;;;;;;5052220;28;20098;-71
2022/04/19 04:01:58;;;;;;;15.23;6.40;;;5.60;99.90;;;;;;5034380;28;20091;-73
2022/04/19 04:04:26;;;;;;;12.80;6.15;;;5.60;99.90;;;;;;5018343;28;20127;-74
2022/04/19 04:06:52;;;;;;;13.95;6.28;;;5.50;99.90;;;;;;5052919;28;20484;-72
2022/04/19 04:09:17;;;;;;;13.30;6.10;;;5.40;99.90;;;;;;5052788;28;20083;-69
2022/04/19 04:11:43;;;;;;;19.70;6.82;;;5.40;99.90;;;;;;5035105;28;20060;-70
2022/04/19 04:14:09;;;;;;;12.88;6.40;;;5.30;99.90;;;;;;5052018;28;20045;-69
2022/04/19 04:16:34;;;;;;;16.27;6.70;;;5.30;99.90;;;;;;5052717;28;20148;-69
2022/04/19 04:19:00;;;;;;;13.75;6.50;;;5.30;99.90;;;;;;5034751;28;20072;-70
2022/04/19 04:21:25;;;;;;;13.48;6.57;;;5.60;99.90;;;;;;5034958;28;20048;-69
2022/04/19 04:23:51;;;;;;;14.70;6.90;;;5.30;99.90;;;;;;5055501;28;20057;-71
2022/04/19 04:26:17;;;;;;;14.32;6.40;;;5.30;99.90;;;;;;5056572;28;20132;-71
2022/04/19 04:28:42;;;;;;;13.68;6.95;;;5.30;99.90;;;;;;5038956;28;20064;-69
2022/04/19 04:31:08;;;;;;;14.05;6.55;;;5.30;99.90;;;;;;5038184;28;20053;-69
2022/04/19 04:33:33;;;;;;;13.93;6.65;;;5.30;99.90;;;;;;5056158;28;20083;-69
2022/04/19 04:35:59;;;;;;;16.45;6.85;;;5.20;99.90;;;;;;5056012;28;20037;-70
2022/04/19 04:38:25;;;;;;;12.00;6.30;;;5.20;99.90;;;;;;5056303;28;20048;-71
2022/04/19 04:40:51;;;;;;;13.75;6.72;;;5.10;99.90;;;;;;5038487;28;20049;-74
2022/04/19 04:43:16;;;;;;;13.05;6.05;;;5.10;99.90;;;;;;5038434;28;20037;-71
2022/04/19 04:45:42;;;;;;;16.35;7.07;;;5.10;99.90;;;;;;5055617;28;20045;-69
2022/04/19 04:50:52;;;;;;;16.88;7.40;;;5.00;99.90;;;;;;5056225;28;20052;-74
2022/04/19 04:53:17;;;;;;;17.05;7.50;;;5.00;99.90;;;;;;5056046;28;20488;-73
2022/04/19 04:55:43;;;;;;;13.32;6.25;;;5.10;99.90;;;;;;5056110;28;20036;-71
2022/04/19 04:58:11;;;;;;;15.63;7.05;;;5.10;99.90;;;;;;5056035;28;20103;-73
2022/04/19 05:00:37;;;;;;;15.75;7.18;;;5.10;99.90;;;;;;5055928;28;20044;-73
2022/04/19 05:03:03;;;;;;;15.80;6.88;;;5.10;99.90;;;;;;5055235;28;20044;-74
2022/04/19 05:05:28;;;;;;;15.32;6.65;;;5.10;99.90;;;;;;5055585;28;20051;-74
2022/04/19 05:07:54;;;;;;;13.88;6.63;;;5.10;99.90;;;;;;5037392;28;20056;-73
2022/04/19 05:10:20;;;;;;;14.68;7.57;;;5.20;99.90;;;;;;5055779;28;20049;-74
2022/04/19 05:12:46;;;;;;;16.63;7.10;;;5.20;99.90;;;;;;5025496;28;20049;-70
2022/04/19 05:15:12;;;;;;;16.98;7.43;;;5.20;99.90;;;;;;5072647;28;20101;-80
2022/04/19 05:17:37;;;;;;;15.60;7.40;;;5.80;99.90;;;;;;5039119;28;20056;-80
2022/04/19 05:20:03;;;;;;;13.65;6.97;;;5.40;99.90;;;;;;5071429;28;20492;-81
2022/04/19 05:22:29;;;;;;;14.13;7.10;;;5.50;99.90;;;;;;5073201;28;20057;-82
2022/04/19 05:24:54;;;;;;;14.90;7.05;;;5.50;99.90;;;;;;5074894;28;20099;-78
2022/04/19 05:27:20;;;;;;;13.70;7.28;;;5.60;99.90;;;;;;5075044;28;20044;-80
2022/04/19 05:29:46;;;;;;;14.30;7.50;;;6.10;99.90;;;;;;5074865;28;20041;-79
2022/04/19 05:32:12;;;;;;;19.70;7.35;;;5.80;99.90;;;;;;5074684;28;20036;-73
2022/04/19 05:34:37;;;;;;;15.52;6.47;;;5.90;99.90;;;;;;5074305;28;20045;-72
2022/04/19 05:37:03;;;;;;;14.20;7.07;;;6.00;99.90;;;;;;5074451;28;20062;-78
2022/04/19 05:39:29;;;;;;;15.23;7.45;;;6.10;99.90;;;;;;5074997;28;20051;-72
2022/04/19 05:41:55;;;;;;;15.10;6.93;;;6.20;99.90;;;;;;5056800;28;20041;-72
2022/04/19 05:44:21;;;;;;;15.43;7.25;;;6.30;99.90;;;;;;5074833;28;20147;-71
2022/04/19 05:46:47;;;;;;;26.85;8.75;;;6.40;99.90;;;;;;5040331;28;20080;-72
2022/04/19 05:49:12;;;;;;;18.92;6.97;;;6.50;99.90;;;;;;5074470;28;20072;-72
2022/04/19 05:51:38;;;;;;;17.90;7.70;;;6.60;99.90;;;;;;5053254;28;20052;-70
2022/04/19 05:54:04;;;;;;;18.17;8.00;;;6.70;99.90;;;;;;5054628;28;20110;-72
2022/04/19 05:56:33;;;;;;;15.88;7.43;;;6.80;99.90;;;;;;5054546;28;20049;-72
2022/04/19 05:58:59;;;;;;;15.05;7.53;;;6.90;99.90;;;;;;5019893;28;20057;-72
2022/04/19 06:01:24;;;;;;;16.45;7.13;;;7.30;99.90;;;;;;5036337;28;20132;-72
2022/04/19 06:06:34;;;;;;;14.52;7.05;;;7.30;99.90;;;;;;5036174;28;20057;-71
2022/04/19 06:09:00;;;;;;;14.90;6.90;;;7.50;99.90;;;;;;5036821;28;20067;-69
2022/04/19 06:11:25;;;;;;;15.70;6.80;;;7.60;99.90;;;;;;5054805;28;20436;-73
2022/04/19 06:13:51;;;;;;;14.23;6.82;;;7.80;99.90;;;;;;5054389;28;20051;-72
2022/04/19 06:16:17;;;;;;;14.60;6.32;;;7.90;99.90;;;;;;5036031;28;20033;-72
2022/04/19 06:18:42;;;;;;;13.35;6.13;;;8.00;99.90;;;;;;5036055;28;20052;-69
2022/04/19 06:21:08;;;;;;;13.57;6.00;;;8.10;99.90;;;;;;5054253;28;20130;-72
2022/04/19 06:23:34;;;;;;;14.90;6.32;;;8.20;99.90;;;;;;5053626;28;20057;-72
2022/04/19 06:26:00;;;;;;;18.63;7.53;;;8.30;99.90;;;;;;5036303;28;20064;-73
2022/04/19 06:28:27;;;;;;;15.50;6.25;;;8.50;99.90;;;;;;5054063;28;20485;-72
2022/04/19 06:30:53;;;;;;;16.63;5.53;;;8.60;99.90;;;;;;5053741;28;20056;-73
2022/04/19 06:33:19;;;;;;;13.77;5.35;;;8.70;99.90;;;;;;5046092;28;20056;-71
2022/04/19 06:35:44;;;;;;;12.82;6.13;;;8.80;99.90;;;;;;5055373;28;20072;-71
2022/04/19 06:38:10;;;;;;;12.65;5.80;;;8.90;99.90;;;;;;5073070;28;20044;-72
2022/04/19 06:40:36;;;;;;;17.67;6.78;;;9.00;99.90;;;;;;5073568;28;20048;-72
2022/04/19 06:43:02;;;;;;;13.73;6.43;;;9.30;99.90;;;;;;5073456;28;20044;-73
2022/04/19 06:45:28;;;;;;;13.38;5.88;;;9.10;99.90;;;;;;5055291;28;20044;-72
2022/04/19 06:48:01;;;;;;;14.85;6.40;;;9.10;99.90;;;;;;5073384;28;20066;-73
2022/04/19 06:50:28;;;;;;;14.57;6.45;;;9.20;99.90;;;;;;5055392;28;20040;-75
2022/04/19 06:52:53;;;;;;;13.88;5.30;;;9.20;99.90;;;;;;5073576;28;20041;-73
2022/04/19 06:55:20;;;;;;;23.02;6.10;;;9.30;99.90;;;;;;5072829;28;20047;-74
2022/04/19 06:57:47;;;;;;;13.77;6.00;;;9.40;99.90;;;;;;5055426;28;20052;-72
2022/04/19 07:00:14;;;;;;;13.25;5.50;;;9.50;99.90;;;;;;5055347;28;20057;-73
2022/04/19 07:02:39;;;;;;;11.48;5.00;;;9.60;99.90;;;;;;5073429;28;20039;-72
2022/04/19 07:05:05;;;;;;;12.90;5.40;;;9.70;99.90;;;;;;5073225;28;20036;-72
2022/04/19 07:07:32;;;;;;;14.15;5.25;;;9.80;99.90;;;;;;5055176;28;20041;-74
2022/04/19 07:09:58;;;;;;;12.20;5.70;;;9.90;99.90;;;;;;5072648;28;20427;-72
2022/04/19 07:12:24;;;;;;;11.45;5.50;;;10.00;99.90;;;;;;5073042;28;20043;-74
2022/04/19 07:14:50;;;;;;;11.32;4.38;;;10.00;99.90;;;;;;5054962;28;20041;-72
2022/04/19 07:17:16;;;;;;;10.93;4.57;;;10.20;99.90;;;;;;5073277;28;20052;-75
2022/04/19 07:28:03;;;;;;;12.77;4.53;;;10.70;99.90;;;;;;5049702;28;20060;-74
2022/04/19 07:30:30;;;;;;;9.70;3.80;;;10.80;99.90;;;;;;5061446;28;20049;-72
2022/04/19 07:32:56;;;;;;;10.77;3.85;;;10.90;99.90;;;;;;5061987;28;20496;-72
2022/04/19 07:35:22;;;;;;;10.90;3.80;;;11.30;99.90;;;;;;5066927;28;20037;-72
2022/04/19 07:37:48;;;;;;;11.25;4.18;;;11.20;99.90;;;;;;5072711;28;20052;-73
2022/04/19 07:40:14;;;;;;;10.93;4.15;;;11.30;99.90;;;;;;5072811;28;20392;-71
2022/04/19 07:42:39;;;;;;;9.27;3.35;;;11.40;99.90;;;;;;5072272;28;20044;-71
2022/04/19 07:45:06;;;;;;;9.93;3.13;;;11.40;99.90;;;;;;5072790;28;20046;-72
2022/04/19 07:47:34;;;;;;;10.88;3.90;;;11.50;99.90;;;;;;5038056;28;20080;-72
2022/04/19 07:50:00;;;;;;;9.18;3.50;;;11.60;99.90;;;;;;5072665;28;20090;-72
2022/04/19 07:52:26;;;;;;;7.97;3.10;;;11.60;99.90;;;;;;5054933;28;20362;-73
2022/04/19 07:54:52;;;;;;;7.72;3.20;;;11.60;99.90;;;;;;5055318;28;20047;-73
2022/04/19 07:57:21;;;;;;;8.30;3.28;;;11.70;99.90;;;;;;5054940;28;20082;-73
2022/04/19 07:59:47;;;;;;;8.70;3.22;;;11.80;99.90;;;;;;5057703;28;20480;-73
2022/04/19 08:02:14;;;;;;;10.18;2.88;;;11.80;99.90;;;;;;5076531;28;20496;-74
2022/04/19 08:04:40;;;;;;;7.82;2.75;;;11.90;99.90;;;;;;5057629;28;20052;-73
2022/04/19 08:07:06;;;;;;;8.43;3.10;;;11.90;99.90;;;;;;5076475;28;20040;-73
2022/04/19 08:09:32;;;;;;;6.78;2.58;;;12.00;99.90;;;;;;5076568;28;20037;-70
2022/04/19 08:11:59;;;;;;;7.35;2.42;;;12.10;99.90;;;;;;5075954;28;20443;-71
2022/04/19 08:14:24;;;;;;;6.45;2.38;;;12.30;99.90;;;;;;5075897;28;20075;-71
2022/04/19 08:16:50;;;;;;;6.25;2.47;;;12.20;99.80;;;;;;5058212;28;20161;-72
2022/04/19 08:19:16;;;;;;;7.10;2.83;;;12.30;99.70;;;;;;5076621;28;20114;-73
2022/04/19 08:21:42;;;;;;;7.90;2.40;;;12.40;98.50;;;;;;5076043;28;20041;-72
2022/04/19 08:24:07;;;;;;;5.35;1.88;;;12.50;97.80;;;;;;5057994;28;20056;-73
2022/04/19 08:26:33;;;;;;;5.53;2.00;;;12.50;96.80;;;;;;5076444;28;20048;-73
2022/04/19 08:28:58;;;;;;;7.43;1.90;;;12.60;97.10;;;;;;5058302;28;20045;-72
2022/04/19 08:31:24;;;;;;;6.53;1.70;;;12.70;96.20;;;;;;5057484;28;20503;-74
2022/04/19 08:33:50;;;;;;;5.20;1.98;;;12.80;96.20;;;;;;5058154;28;20047;-74
2022/04/19 08:36:15;;;;;;;6.82;1.90;;;13.00;95.80;;;;;;5075786;28;20032;-73
2022/04/19 08:38:41;;;;;;;5.53;1.70;;;13.00;94.60;;;;;;5058137;28;20117;-74
2022/04/19 08:41:07;;;;;;;5.50;1.80;;;13.10;94.50;;;;;;5058026;28;20052;-72
2022/04/19 08:43:34;;;;;;;5.45;1.70;;;13.30;92.30;;;;;;5057857;28;20396;-73
2022/04/19 08:46:01;;;;;;;5.63;1.63;;;13.20;92.90;;;;;;5074902;28;20505;-73
2022/04/19 08:48:27;;;;;;;4.97;1.77;;;13.40;92.60;;;;;;5057526;28;20048;-73
2022/04/19 08:50:55;;;;;;;5.10;1.73;;;13.40;91.80;;;;;;5075585;28;20399;-74
2022/04/19 08:58:50;;;;;;;8.13;2.17;;;13.80;90.20;;;;;;5057485;28;20056;-73
2022/04/19 09:01:16;;;;;;;5.88;1.90;;;13.80;88.80;;;;;;5075580;28;20236;-73
2022/04/19 09:03:42;;;;;;;5.57;2.05;;;13.80;88.00;;;;;;5056598;28;20045;-72
2022/04/19 09:06:08;;;;;;;6.03;1.85;;;13.90;88.10;;;;;;5075307;28;20090;-74
2022/04/19 09:08:34;;;;;;;7.18;1.92;;;14.00;88.00;;;;;;5057372;28;20044;-72
2022/04/19 09:11:06;;;;;;;6.78;1.98;;;14.30;88.80;;;;;;5075054;28;20044;-73
2022/04/19 09:13:32;;;;;;;5.90;2.00;;;14.20;87.20;;;;;;5075317;28;20055;-72
2022/04/19 09:16:04;;;;;;;5.10;2.08;;;14.40;87.90;;;;;;5057396;28;20048;-74
2022/04/19 09:18:30;;;;;;;5.28;1.80;;;14.40;85.10;;;;;;5056963;28;20048;-73
2022/04/19 09:20:57;;;;;;;6.18;2.17;;;14.40;85.20;;;;;;5054124;28;20041;-73
2022/04/19 09:23:25;;;;;;;7.47;2.25;;;14.40;85.00;;;;;;5054672;28;20404;-74
2022/04/19 09:25:53;;;;;;;7.35;2.40;;;14.50;85.70;;;;;;5064582;28;20546;-72
2022/04/19 09:28:20;;;;;;;5.45;1.83;;;14.60;85.80;;;;;;5053905;28;20064;-72
2022/04/19 09:30:48;;;;;;;6.70;1.75;;;14.70;85.10;;;;;;5054871;28;20119;-73
2022/04/19 09:33:21;;;;;;;9.93;2.50;;;14.70;84.80;;;;;;5055945;28;20044;-74
2022/04/19 09:35:48;;;;;;;6.38;2.40;;;14.90;81.60;;;;;;5036229;28;20128;-73
2022/04/19 09:38:15;;;;;;;5.35;2.03;;;14.90;82.20;;;;;;5036807;28;20075;-74
2022/04/19 09:40:46;;;;;;;8.05;2.80;;;15.00;81.00;;;;;;5054764;28;20441;-75
2022/04/19 09:43:24;;;;;;;6.83;2.50;;;15.00;79.80;;;;;;5037005;28;20056;-73
2022/04/19 09:45:51;;;;;;;6.78;2.28;;;15.00;77.90;;;;;;5054300;28;20128;-74
2022/04/19 09:48:18;;;;;;;8.18;2.47;;;15.00;79.30;;;;;;5036651;28;20075;-73
2022/04/19 09:50:51;;;;;;;7.40;2.30;;;15.10;79.80;;;;;;5035910;28;20055;-74
2022/04/19 09:53:19;;;;;;;6.72;2.42;;;15.30;79.20;;;;;;5054501;28;20041;-72
2022/04/19 09:55:49;;;;;;;6.28;2.33;;;15.40;78.80;;;;;;5054197;28;20511;-74
2022/04/19 09:58:15;;;;;;;8.50;2.65;;;15.30;77.70;;;;;;5054372;28;20044;-73
2022/04/19 10:00:45;;;;;;;9.75;2.70;;;15.30;76.80;;;;;;5054026;28;20564;-74
2022/04/19 10:08:51;;;;;;;5.45;2.22;;;15.20;76.40;;;;;;5054027;28;20060;-74
2022/04/19 10:11:18;;;;;;;6.72;2.45;;;15.50;76.10;;;;;;5054433;28;20044;-74
2022/04/19 10:13:45;;;;;;;5.80;2.40;;;15.40;76.10;;;;;;5053998;28;20052;-72
2022/04/19 10:16:15;;;;;;;6.18;2.45;;;15.60;76.00;;;;;;5053848;28;20493;-74
2022/04/19 10:18:46;;;;;;;6.13;2.60;;;15.70;75.40;;;;;;5053966;28;20037;-72
2022/04/19 10:21:21;;;;;;;6.32;2.30;;;15.80;74.60;;;;;;5053156;28;20091;-71
2022/04/19 10:23:47;;;;;;;7.32;2.20;;;16.00;75.70;;;;;;5053123;28;20519;-72
2022/04/19 10:26:23;;;;;;;6.93;2.80;;;16.10;75.10;;;;;;5053617;28;20412;-73
2022/04/19 10:28:58;;;;;;;7.75;2.95;;;16.10;73.10;;;;;;5053379;28;20385;-74
2022/04/19 10:31:35;;;;;;;5.40;2.28;;;16.10;71.80;;;;;;5054053;28;20064;-73
2022/04/19 10:34:02;;;;;;;6.22;1.98;;;16.20;73.80;;;;;;5053431;28;20111;-73
2022/04/19 10:36:38;;;;;;;7.15;2.50;;;16.20;72.30;;;;;;5051626;28;20059;-75
2022/04/19 10:39:13;;;;;;;7.47;2.60;;;16.40;72.50;;;;;;5035170;28;20044;-73
2022/04/19 10:42:05;;;;;;;7.35;2.30;;;16.30;71.30;;;;;;5053307;28;20049;-72
2022/04/19 10:44:48;;;;;;;7.72;2.92;;;16.30;69.90;;;;;;5053566;28;20048;-71
2022/04/19 10:47:15;;;;;;;5.93;1.98;;;16.30;70.10;;;;;;5035121;28;20417;-77
2022/04/19 10:49:50;;;;;;;6.88;2.70;;;16.40;71.50;;;;;;5053376;28;20437;-75
2022/04/19 10:52:43;;;;;;;6.05;2.17;;;16.40;70.80;;;;;;5018968;28;20409;-75
2022/04/19 10:55:09;;;;;;;6.32;2.40;;;16.50;70.60;;;;;;5052807;28;20048;-75
2022/04/19 11:00:29;;;;;;;;;;;16.50;68.30;;;;;;5053488;28;20052;-75
2022/04/19 11:03:00;;;;;;;5.38;1.92;;;16.40;68.80;;;;;;5035460;28;19925;-75
2022/04/19 11:05:54;;;;;;;5.57;2.05;;;16.50;69.10;;;;;;5053309;28;20110;-76
2022/04/19 11:08:25;;;;;;;6.72;1.80;;;16.60;68.40;;;;;;5035343;28;20053;-75
2022/04/19 11:10:57;;;;;;;5.07;1.75;;;16.60;67.50;;;;;;5017932;28;20052;-75
2022/04/19 11:13:26;;;;;;;;;;;16.50;66.10;;;;;;5052178;28;20053;-75
2022/04/19 11:16:04;;;;;;;4.85;1.38;;;16.40;64.90;;;;;;5034999;28;19920;-78
2022/04/19 11:18:39;;;;;;;4.80;1.83;;;16.40;65.00;;;;;;5035429;28;20056;-76
2022/04/19 11:21:13;;;;;;;4.85;1.90;;;16.40;65.00;;;;;;5018493;28;20044;-75
2022/04/19 11:23:49;;;;;;;6.05;2.13;;;16.40;65.80;;;;;;5052480;28;20489;-77
2022/04/19 11:26:26;;;;;;;3.60;1.55;;;16.50;65.80;;;;;;5051070;28;20469;-74
2022/04/19 11:29:10;;;;;;;9.35;2.10;;;16.60;65.10;;;;;;5035098;28;20049;-73
2022/04/19 11:31:54;;;;;;;4.88;1.65;;;16.60;64.40;;;;;;5035198;28;20045;-72
2022/04/19 11:34:20;;;;;;;5.18;1.95;;;16.80;66.40;;;;;;5034826;28;20098;-73
2022/04/19 11:36:45;;;;;;;5.45;1.95;;;16.90;65.90;;;;;;5034662;28;20045;-71
2022/04/19 11:47:54;;;;;;;4.93;2.13;;;17.00;64.70;;;;;;5034402;28;20405;-72
2022/04/19 11:50:30;;;;;;;5.50;2.03;;;16.90;64.00;;;;;;5034662;28;20049;-75
2022/04/19 11:53:02;;;;;;;6.50;2.13;;;16.80;64.40;;;;;;5034216;28;20049;-74
2022/04/19 11:55:28;;;;;;;7.30;1.92;;;16.80;64.40;;;;;;5034668;28;20041;-73
2022/04/19 11:58:07;;;;;;;6.03;2.30;;;16.90;65.20;;;;;;5033848;28;20056;-72
2022/04/19 12:00:33;;;;;;;7.82;2.92;;;16.70;64.20;;;;;;5052512;28;20037;-74
2022/04/19 12:03:02;;;;;;;6.90;2.40;;;16.80;64.60;;;;;;5033433;28;20064;-72
2022/04/19 12:05:30;;;;;;;7.03;2.58;;;16.70;65.00;;;;;;5052165;28;20133;-74
2022/04/19 12:07:56;;;;;;;6.32;2.40;;;16.80;65.60;;;;;;5034124;28;20076;-74
2022/04/19 12:10:23;;;;;;;8.07;2.45;;;16.90;65.90;;;;;;5052563;28;20037;-73
2022/04/19 12:12:52;;;;;;;5.53;2.25;;;17.10;66.00;;;;;;5052173;28;20048;-76
2022/04/19 12:15:38;;;;;;;7.88;2.30;;;17.40;66.40;;;;;;5051826;28;20134;-75
2022/04/19 12:18:05;;;;;;;6.65;2.70;;;17.60;65.40;;;;;;5034028;28;20049;-74
2022/04/19 12:20:42;;;;;;;6.30;2.00;;;17.70;65.10;;;;;;5052156;28;20048;-73
2022/04/19 12:23:19;;;;;;;6.70;2.75;;;17.90;64.70;;;;;;5052179;28;20057;-75
2022/04/19 12:26:01;;;;;;;6.30;2.00;;;17.70;62.90;;;;;;5033524;28;20068;-75
2022/04/19 12:28:36;;;;;;;;;;;17.70;63.20;;;;;;5034731;28;20056;-74
2022/04/19 12:31:02;;;;;;;7.05;2.05;;;17.40;62.50;;;;;;5033500;28;19920;-74
2022/04/19 12:33:27;;;;;;;6.47;2.25;;;17.30;63.10;;;;;;5052047;28;20041;-74
2022/04/19 12:35:54;;;;;;;7.75;2.15;;;17.20;63.10;;;;;;5034301;28;20041;-75
2022/04/19 12:38:28;;;;;;;6.55;1.92;;;17.30;64.00;;;;;;5051902;28;20040;-75
2022/04/19 12:40:54;;;;;;;8.30;2.63;;;17.50;64.00;;;;;;5052449;28;20037;-72
2022/04/19 12:43:20;;;;;;;6.43;2.33;;;17.60;63.70;;;;;;5052752;28;20083;-74
2022/04/19 12:45:46;;;;;;;7.20;2.65;;;17.50;62.50;;;;;;5055389;28;20057;-74
2022/04/19 12:48:23;;;;;;;7.28;2.50;;;17.40;61.20;;;;;;5055423;28;20052;-74
2022/04/19 12:51:09;;;;;;;5.78;1.77;;;17.20;62.20;;;;;;5055927;28;20052;-74
2022/04/19 12:53:36;;;;;;;5.80;2.13;;;17.30;62.70;;;;;;5055245;28;20055;-75
2022/04/19 12:56:10;;;;;;;5.90;2.03;;;17.30;62.50;;;;;;5055345;28;20467;-76
2022/04/19 12:58:46;;;;;;;7.03;2.10;;;17.40;62.10;;;;;;5053519;28;20115;-73
2022/04/19 13:01:12;;;;;;;8.27;2.90;;;17.40;62.40;;;;;;5037427;28;20053;-73
2022/04/19 13:03:38;;;;;;;6.95;2.05;;;17.40;60.90;;;;;;5055521;28;20136;-73
2022/04/19 13:14:17;;;;;;;5.75;2.05;;;17.10;61.00;;;;;;5036906;28;20500;-73
2022/04/19 13:16:43;;;;;;;3.92;1.70;;;17.20;61.60;;;;;;5037185;28;20056;-72
2022/04/19 13:19:09;;;;;;;6.75;2.40;;;17.30;61.60;;;;;;5036973;28;20056;-73
2022/04/19 13:21:34;;;;;;;8.18;2.72;;;17.30;61.30;;;;;;5046029;28;20040;-76
2022/04/19 13:24:01;;;;;;;7.03;2.60;;;17.30;61.90;;;;;;5055266;28;20106;-77
2022/04/19 13:26:28;;;;;;;13.82;2.88;;;17.30;62.00;;;;;;5065266;28;20040;-78
2022/04/19 13:28:53;;;;;;;9.98;3.08;;;17.20;61.90;;;;;;5053755;28;20481;-76
2022/04/19 13:31:19;;;;;;;6.40;2.75;;;17.30;62.40;;;;;;5053479;28;20053;-71
2022/04/19 13:33:44;;;;;;;7.82;2.58;;;17.20;61.90;;;;;;5054340;28;20091;-75
2022/04/19 13:36:10;;;;;;;8.10;2.95;;;17.20;61.80;;;;;;5053638;28;20052;-81
2022/04/19 13:38:37;;;;;;;8.10;3.00;;;17.20;61.50;;;;;;5053633;28;20568;-78
2022/04/19 13:41:03;;;;;;;9.63;3.20;;;17.10;61.20;;;;;;5053403;28;20075;-80
2022/04/19 13:43:29;;;;;;;7.07;2.63;;;17.20;61.70;;;;;;5053418;28;20045;-80